createdAt,value
2018-09-04T00:01:02.318Z,100920.12
2018-09-04T00:03:32.038Z,100912.53
2018-09-04T00:06:01.535Z,100915.45
2018-09-04T00:08:31.259Z,100918.41
2018-09-04T00:11:00.758Z,100918.31
2018-09-04T00:13:30.454Z,100918.36
2018-09-04T00:16:00.280Z,100913.70
2018-09-04T00:18:29.668Z,100914.77
2018-09-04T00:20:59.683Z,100910.58
2018-09-04T00:23:29.499Z,100912.89
2018-09-04T00:25:59.049Z,100909.14
2018-09-04T00:28:28.494Z,100909.14
2018-09-04T00:30:58.362Z,100906.78
2018-09-04T00:33:28.437Z,100905.28
2018-09-04T00:35:57.914Z,100904.27
2018-09-04T00:38:27.589Z,100897.77
2018-09-04T00:40:57.063Z,100901.64
2018-09-04T00:43:26.572Z,100900.08
2018-09-04T00:45:56.073Z,100902.77
2018-09-04T00:48:25.979Z,100903.14
2018-09-04T00:50:55.323Z,100901.97
2018-09-04T00:53:25.222Z,100896.77
2018-09-04T00:55:54.522Z,100897.36
2018-09-04T00:58:24.046Z,100895.53
2018-09-04T01:00:53.570Z,100899.59
2018-09-04T01:03:23.929Z,100909.91
2018-09-04T01:05:54.159Z,100909.41
2018-09-04T01:08:23.878Z,100912.25
2018-09-04T01:10:53.395Z,100911.61
2018-09-04T01:13:22.953Z,100909.45
2018-09-04T01:15:52.417Z,100905.16
2018-09-04T01:18:21.890Z,100905.48
2018-09-04T01:20:51.606Z,100904.02
2018-09-04T01:23:21.520Z,100907.15
2018-09-04T01:25:51.236Z,100903.17
2018-09-04T01:28:21.701Z,100908.08
2018-09-04T01:30:51.490Z,100911.44
2018-09-04T01:33:21.061Z,100912.25
2018-09-04T01:35:50.434Z,100919.16
2018-09-04T01:38:20.686Z,100924.33
2018-09-04T01:40:50.331Z,100924.48
2018-09-04T01:43:20.382Z,100921.50
2018-09-04T01:45:50.062Z,100917.19
2018-09-04T01:48:19.423Z,100917.17
2018-09-04T01:50:49.479Z,100919.53
2018-09-04T01:53:18.842Z,100913.01
2018-09-04T01:55:48.400Z,100915.02
2018-09-04T01:58:17.690Z,100912.34
2018-09-04T02:00:47.366Z,100913.99
2018-09-04T02:03:17.462Z,100917.34
2018-09-04T02:05:47.006Z,100913.81
2018-09-04T02:08:16.699Z,100907.80
2018-09-04T02:10:46.449Z,100856.69
2018-09-04T02:13:15.714Z,100897.26
2018-09-04T02:15:45.498Z,100898.63
2018-09-04T02:18:15.657Z,100894.77
2018-09-04T02:20:45.019Z,100892.44
2018-09-04T02:23:14.583Z,100894.77
2018-09-04T02:25:43.894Z,100890.45
2018-09-04T02:28:13.472Z,100896.27
2018-09-04T02:30:42.895Z,100891.77
2018-09-04T02:33:12.467Z,100895.28
2018-09-04T02:35:42.061Z,100891.59
2018-09-04T02:38:11.562Z,100900.12
2018-09-04T02:40:41.510Z,100894.13
2018-09-04T02:43:10.870Z,100894.32
2018-09-04T02:45:40.291Z,100898.33
2018-09-04T02:48:09.843Z,100896.64
2018-09-04T02:50:39.078Z,100896.15
2018-09-04T02:53:08.629Z,100888.97
2018-09-04T02:55:38.111Z,100887.97
2018-09-04T02:58:08.406Z,100893.64
2018-09-04T03:00:37.946Z,100898.84
2018-09-04T03:03:07.605Z,100902.70
2018-09-04T03:05:37.383Z,100910.05
2018-09-04T03:08:07.044Z,100910.55
2018-09-04T03:10:36.754Z,100900.84
2018-09-04T03:13:06.001Z,100901.53
2018-09-04T03:15:35.796Z,100909.54
2018-09-04T03:18:05.510Z,100910.05
2018-09-04T03:20:35.230Z,100912.03
2018-09-04T03:23:04.756Z,100913.88
2018-09-04T03:25:35.686Z,100908.54
2018-09-04T03:28:05.163Z,100910.17
2018-09-04T03:30:35.035Z,100911.16
2018-09-04T03:33:04.576Z,100910.16
2018-09-04T03:35:34.522Z,100907.36
2018-09-04T03:38:04.035Z,100909.72
2018-09-04T03:40:33.891Z,100909.84
2018-09-04T03:43:03.630Z,100917.33
2018-09-04T03:45:33.970Z,100906.62
2018-09-04T03:48:04.110Z,100907.14
2018-09-04T03:50:33.787Z,100913.62
2018-09-04T03:53:03.286Z,100910.97
2018-09-04T03:55:32.925Z,100907.45
2018-09-04T03:58:02.172Z,100908.97
2018-09-04T04:00:31.680Z,100909.47
2018-09-04T04:03:01.756Z,100911.61
2018-09-04T04:05:31.681Z,100910.42
2018-09-04T04:08:01.191Z,100918.44
2018-09-04T04:10:31.470Z,100918.25
2018-09-04T04:13:01.754Z,100914.77
2018-09-04T04:15:31.731Z,100917.15
2018-09-04T04:18:01.843Z,100922.33
2018-09-04T04:20:31.347Z,100928.50
2018-09-04T04:23:00.876Z,100938.64
2018-09-04T04:25:30.175Z,100937.11
2018-09-04T04:28:00.039Z,100938.06
2018-09-04T04:30:29.510Z,100939.09
2018-09-04T04:32:58.991Z,100936.05
2018-09-04T04:35:28.323Z,100934.72
2018-09-04T04:37:57.845Z,100930.63
2018-09-04T04:40:27.359Z,100929.13
2018-09-04T04:42:57.231Z,100938.47
2018-09-04T04:45:27.013Z,100937.56
2018-09-04T04:47:56.580Z,100943.06
2018-09-04T04:50:25.988Z,100940.42
2018-09-04T04:52:56.149Z,100946.94
2018-09-04T04:55:26.063Z,100934.20
2018-09-04T04:57:55.306Z,100938.06
2018-09-04T05:00:25.698Z,100939.06
2018-09-04T05:02:55.151Z,100936.23
2018-09-04T05:05:24.706Z,100934.91
2018-09-04T05:07:54.366Z,100942.12
2018-09-04T05:10:24.095Z,100940.45
2018-09-04T05:12:53.607Z,100943.45
2018-09-04T05:15:22.863Z,100940.11
2018-09-04T05:17:52.571Z,100931.61
2018-09-04T05:20:25.074Z,100934.14
2018-09-04T05:22:54.301Z,100935.18
2018-09-04T05:25:23.631Z,100935.50
2018-09-04T05:27:53.478Z,100941.87
2018-09-04T05:30:22.991Z,100945.72
2018-09-04T05:32:57.683Z,100950.39
2018-09-04T05:35:28.266Z,100949.21
2018-09-04T05:37:57.651Z,100952.55
2018-09-04T05:40:27.562Z,100952.86
2018-09-04T05:42:59.430Z,100956.55
2018-09-04T05:45:30.678Z,100955.06
2018-09-04T05:48:02.011Z,100956.58
2018-09-04T05:50:32.030Z,100964.45
2018-09-04T05:53:01.868Z,100962.93
2018-09-04T05:55:31.830Z,100968.27
2018-09-04T05:58:02.011Z,100967.45
2018-09-04T06:00:35.982Z,100963.11
2018-09-04T06:03:05.638Z,100972.02
2018-09-04T06:05:35.558Z,100964.36
2018-09-04T06:08:05.037Z,100966.04
2018-09-04T06:10:34.303Z,100968.54
2018-09-04T06:13:03.828Z,100966.88
2018-09-04T06:15:33.309Z,100956.84
2018-09-04T06:18:02.822Z,100958.36
2018-09-04T06:20:32.298Z,100958.00
2018-09-04T06:23:02.039Z,100960.17
2018-09-04T06:25:31.527Z,100952.31
2018-09-04T06:28:01.483Z,100959.33
2018-09-04T06:30:31.222Z,100960.66
2018-09-04T06:33:01.152Z,100972.71
2018-09-04T06:35:30.637Z,100970.96
2018-09-04T06:38:00.154Z,100972.66
2018-09-04T06:40:29.590Z,100970.78
2018-09-04T06:42:59.099Z,100970.61
2018-09-04T06:45:28.607Z,100977.31
2018-09-04T06:47:58.290Z,100968.06
2018-09-04T06:50:27.823Z,100975.54
2018-09-04T06:52:57.856Z,100980.37
2018-09-04T06:55:27.502Z,100979.58
2018-09-04T06:57:56.876Z,100970.89
2018-09-04T07:00:26.547Z,100975.61
2018-09-04T07:02:56.134Z,100973.02
2018-09-04T07:05:25.887Z,100970.83
2018-09-04T07:07:55.159Z,100974.92
2018-09-04T07:10:25.015Z,100972.90
2018-09-04T07:12:54.375Z,100985.61
2018-09-04T07:15:24.750Z,100976.34
2018-09-04T07:17:54.655Z,100978.83
2018-09-04T07:20:24.191Z,100976.58
2018-09-04T07:22:53.467Z,100975.98
2018-09-04T07:25:23.099Z,100977.58
2018-09-04T07:27:53.043Z,100933.27
2018-09-04T07:30:23.049Z,100981.77
2018-09-04T07:32:53.136Z,100987.70
2018-09-04T07:35:22.599Z,100986.51
2018-09-04T07:37:52.701Z,100984.22
2018-09-04T07:40:23.062Z,100981.44
2018-09-04T07:42:53.011Z,100976.90
2018-09-04T07:45:22.254Z,100972.84
2018-09-04T07:47:52.026Z,100972.20
2018-09-04T07:50:21.482Z,100971.06
2018-09-04T07:52:51.209Z,100972.37
2018-09-04T07:55:21.111Z,100961.45
2018-09-04T07:57:50.353Z,100958.00
2018-09-04T08:00:19.910Z,100967.71
2018-09-04T08:02:49.376Z,100969.43
2018-09-04T08:05:20.318Z,100967.39
2018-09-04T08:07:49.911Z,100961.75
2018-09-04T08:10:19.154Z,100956.38
2018-09-04T08:12:48.662Z,100957.13
2018-09-04T08:15:18.222Z,100949.86
2018-09-04T08:17:47.442Z,100953.56
2018-09-04T08:20:16.995Z,100951.38
2018-09-04T08:22:46.466Z,100957.22
2018-09-04T08:25:16.386Z,100960.78
2018-09-04T08:27:45.874Z,100969.81
2018-09-04T08:30:15.460Z,100962.15
2018-09-04T08:32:44.944Z,100949.23
2018-09-04T08:35:15.426Z,100950.99
2018-09-04T08:37:45.121Z,100950.31
2018-09-04T08:40:15.094Z,100947.22
2018-09-04T08:42:44.891Z,100947.49
2018-09-04T08:45:14.338Z,100952.02
2018-09-04T08:47:44.252Z,100958.20
2018-09-04T08:50:13.688Z,100967.87
2018-09-04T08:52:43.899Z,100955.23
2018-09-04T08:55:13.217Z,100957.21
2018-09-04T08:57:44.294Z,100956.30
2018-09-04T09:00:15.059Z,100960.52
2018-09-04T09:02:44.473Z,100958.91
2018-09-04T09:05:14.699Z,100961.78
2018-09-04T09:07:44.495Z,100962.20
2018-09-04T09:10:14.492Z,100958.98
2018-09-04T09:12:43.781Z,100960.66
2018-09-04T09:15:13.266Z,100951.39
2018-09-04T09:17:42.743Z,100949.41
2018-09-04T09:20:12.314Z,100957.86
2018-09-04T09:22:41.975Z,100958.39
2018-09-04T09:25:11.880Z,100949.27
2018-09-04T09:27:41.433Z,100950.23
2018-09-04T09:30:10.911Z,100943.91
2018-09-04T09:32:40.378Z,100935.62
2018-09-04T09:35:10.407Z,100934.88
2018-09-04T09:37:40.226Z,100932.20
2018-09-04T09:40:09.709Z,100934.03
2018-09-04T09:42:39.290Z,100923.89
2018-09-04T09:45:08.536Z,100927.25
2018-09-04T09:47:43.264Z,100924.89
2018-09-04T09:50:13.102Z,100927.09
2018-09-04T09:52:42.956Z,100927.69
2018-09-04T09:55:12.266Z,100929.45
2018-09-04T09:57:43.326Z,100923.81
2018-09-04T10:00:19.169Z,100917.31
2018-09-04T10:02:55.686Z,100904.46
2018-09-04T10:05:25.229Z,100917.00
2018-09-04T10:07:54.952Z,100911.03
2018-09-04T10:10:24.479Z,100906.30
2018-09-04T10:12:54.582Z,100904.78
2018-09-04T10:15:24.302Z,100904.13
2018-09-04T10:17:54.412Z,100900.42
2018-09-04T10:20:23.921Z,100897.25
2018-09-04T10:22:53.684Z,100884.47
2018-09-04T10:25:23.395Z,100879.11
2018-09-04T10:27:53.882Z,100890.73
2018-09-04T10:30:23.179Z,100887.61
2018-09-04T10:32:54.091Z,100890.44
2018-09-04T10:35:24.035Z,100886.71
2018-09-04T10:37:54.224Z,100892.97
2018-09-04T10:40:28.812Z,100889.15
2018-09-04T10:42:58.313Z,100892.41
2018-09-04T10:45:33.010Z,100888.48
2018-09-04T10:48:02.279Z,100888.91
2018-09-04T10:50:31.759Z,100887.55
2018-09-04T10:53:02.026Z,100884.19
2018-09-04T10:55:31.609Z,100880.66
2018-09-04T10:58:01.073Z,100884.64
2018-09-04T11:00:30.914Z,100878.38
2018-09-04T11:03:00.155Z,100879.91
2018-09-04T11:05:29.618Z,100876.41
2018-09-04T11:07:59.428Z,100875.28
2018-09-04T11:10:29.399Z,100874.94
2018-09-04T11:12:58.767Z,100868.45
2018-09-04T11:15:28.186Z,100872.05
2018-09-04T11:17:58.199Z,100869.41
2018-09-04T11:20:28.056Z,100868.34
2018-09-04T11:22:57.735Z,100864.88
2018-09-04T11:25:27.210Z,100863.96
2018-09-04T11:27:56.718Z,100857.92
2018-09-04T11:30:26.248Z,100862.69
2018-09-04T11:32:55.774Z,100861.93
2018-09-04T11:35:25.759Z,100862.52
2018-09-04T11:37:55.374Z,100861.67
2018-09-04T11:40:25.351Z,100861.95
2018-09-04T11:42:55.180Z,100864.31
2018-09-04T11:45:24.698Z,100862.44
2018-09-04T11:47:53.990Z,100855.62
2018-09-04T11:50:23.330Z,100850.06
2018-09-04T11:52:53.218Z,100840.82
2018-09-04T11:55:22.444Z,100850.09
2018-09-04T11:57:52.074Z,100844.06
2018-09-04T12:00:51.715Z,100837.88
2018-09-04T12:03:21.179Z,100841.86
2018-09-04T12:05:50.675Z,100844.05
2018-09-04T12:08:20.149Z,100841.78
2018-09-04T12:10:49.887Z,100845.47
2018-09-04T12:13:24.530Z,100856.73
2018-09-04T12:15:53.983Z,100849.30
2018-09-04T12:18:23.214Z,100850.73
2018-09-04T12:20:54.230Z,100847.61
2018-09-04T12:23:24.151Z,100836.67
2018-09-04T12:25:55.581Z,100838.21
2018-09-04T12:28:25.678Z,100834.53
2018-09-04T12:30:55.546Z,100831.34
2018-09-04T12:33:25.298Z,100829.92
2018-09-04T12:35:54.897Z,100828.27
2018-09-04T12:38:26.398Z,100828.52
2018-09-04T12:40:56.196Z,100824.79
2018-09-04T12:43:26.736Z,100823.23
2018-09-04T12:45:56.990Z,100823.61
2018-09-04T12:48:29.946Z,100826.46
2018-09-04T12:51:00.766Z,100829.19
2018-09-04T12:53:31.167Z,100823.75
2018-09-04T12:56:00.643Z,100824.70
2018-09-04T12:58:30.082Z,100833.08
2018-09-04T13:00:59.855Z,100829.74
2018-09-04T13:03:29.845Z,100825.27
2018-09-04T13:05:59.418Z,100834.64
2018-09-04T13:08:30.405Z,100824.78
2018-09-04T13:11:00.023Z,100831.72
2018-09-04T13:13:29.417Z,100829.80
2018-09-04T13:16:01.247Z,100831.86
2018-09-04T13:18:31.102Z,100830.65
2018-09-04T13:21:02.465Z,100822.12
2018-09-04T13:23:33.528Z,100824.48
2018-09-04T13:26:03.934Z,100822.67
2018-09-04T13:28:34.278Z,100816.28
2018-09-04T13:31:03.806Z,100814.32
2018-09-04T13:33:33.079Z,100815.02
2018-09-04T13:36:02.359Z,100809.91
2018-09-04T13:38:31.811Z,100806.98
2018-09-04T13:41:07.000Z,100809.11
2018-09-04T13:43:37.169Z,100804.17
2018-09-04T13:46:06.929Z,100808.30
2018-09-04T13:48:36.591Z,100811.11
2018-09-04T13:51:06.981Z,100795.86
2018-09-04T13:53:36.214Z,100808.84
2018-09-04T13:56:05.974Z,100808.66
2018-09-04T13:58:35.194Z,100813.58
2018-09-04T14:01:05.181Z,100805.30
2018-09-04T14:03:34.656Z,100802.23
2018-09-04T14:06:04.998Z,100802.89
2018-09-04T14:08:34.222Z,100798.80
2018-09-04T14:11:03.574Z,100804.72
2018-09-04T14:13:33.080Z,100802.91
2018-09-04T14:16:06.454Z,100798.45
2018-09-04T14:18:35.983Z,100796.21
2018-09-04T14:21:06.007Z,100789.91
2018-09-04T14:23:35.403Z,100788.55
2018-09-04T14:26:04.746Z,100783.38
2018-09-04T14:28:41.692Z,100786.20
2018-09-04T14:31:04.170Z,100788.23
2018-09-04T14:33:33.643Z,100787.09
2018-09-04T14:36:03.235Z,100793.05
2018-09-04T14:38:32.622Z,100795.93
2018-09-04T14:41:02.175Z,100791.99
2018-09-04T14:43:31.674Z,100787.64
2018-09-04T14:46:01.052Z,100798.73
2018-09-04T14:48:30.438Z,100801.91
2018-09-04T14:50:59.948Z,100806.33
2018-09-04T14:53:29.943Z,100816.90
2018-09-04T14:55:59.371Z,100820.72
2018-09-04T14:58:29.486Z,100816.40
2018-09-04T15:00:59.009Z,100819.59
2018-09-04T15:03:28.895Z,100827.22
2018-09-04T15:05:58.168Z,100826.64
2018-09-04T15:08:28.638Z,100828.27
2018-09-04T15:10:57.904Z,100827.44
2018-09-04T15:13:28.310Z,100830.59
2018-09-04T15:15:57.731Z,100824.83
2018-09-04T15:18:27.650Z,100824.75
2018-09-04T15:20:57.550Z,100827.58
2018-09-04T15:23:27.367Z,100827.14
2018-09-04T15:25:57.138Z,100828.82
2018-09-04T15:28:27.996Z,100825.22
2018-09-04T15:30:57.579Z,100816.14
2018-09-04T15:33:27.263Z,100825.38
2018-09-04T15:35:57.364Z,100824.08
2018-09-04T15:38:27.351Z,100822.56
2018-09-04T15:40:57.023Z,100822.60
2018-09-04T15:43:26.538Z,100823.48
2018-09-04T15:45:56.037Z,100829.11
2018-09-04T15:48:25.735Z,100829.11
2018-09-04T15:50:55.670Z,100822.06
2018-09-04T15:53:25.204Z,100831.47
2018-09-04T15:55:54.457Z,100834.19
2018-09-04T15:58:23.998Z,100840.95
2018-09-04T16:00:53.446Z,100842.03
2018-09-04T16:03:22.992Z,100834.36
2018-09-04T16:05:53.174Z,100838.20
2018-09-04T16:08:22.838Z,100842.80
2018-09-04T16:10:52.426Z,100838.18
2018-09-04T16:13:21.897Z,100844.02
2018-09-04T16:15:51.336Z,100846.14
2018-09-04T16:18:20.819Z,100845.16
2018-09-04T16:20:50.084Z,100842.07
2018-09-04T16:23:19.623Z,100841.67
2018-09-04T16:25:49.125Z,100841.16
2018-09-04T16:28:18.411Z,100841.66
2018-09-04T16:30:48.338Z,100840.02
2018-09-04T16:33:17.839Z,100839.01
2018-09-04T16:35:47.315Z,100835.33
2018-09-04T16:38:16.896Z,100838.14
2018-09-04T16:40:46.325Z,100836.47
2018-09-04T16:43:16.647Z,100838.27
2018-09-04T16:45:46.196Z,100833.75
2018-09-04T16:48:15.771Z,100835.56
2018-09-04T16:50:45.443Z,100833.91
2018-09-04T16:53:14.880Z,100841.55
2018-09-04T16:55:44.423Z,100846.60
2018-09-04T16:58:13.914Z,100847.74
2018-09-04T17:00:43.412Z,100860.45
2018-09-04T17:03:12.665Z,100857.48
2018-09-04T17:05:42.512Z,100861.75
2018-09-04T17:08:11.946Z,100869.80
2018-09-04T17:10:41.237Z,100874.83
2018-09-04T17:13:10.602Z,100874.89
2018-09-04T17:15:40.054Z,100884.05
2018-09-04T17:18:09.310Z,100881.70
2018-09-04T17:20:38.631Z,100885.19
2018-09-04T17:23:08.749Z,100886.88
2018-09-04T17:25:38.303Z,100895.62
2018-09-04T17:28:07.996Z,100893.12
2018-09-04T17:30:37.279Z,100890.17
2018-09-04T17:33:06.856Z,100895.20
2018-09-04T17:35:36.266Z,100893.92
2018-09-04T17:38:06.210Z,100895.41
2018-09-04T17:40:35.724Z,100896.23
2018-09-04T17:43:05.195Z,100900.50
2018-09-04T17:45:35.111Z,100909.20
2018-09-04T17:48:05.269Z,100901.09
2018-09-04T17:50:34.933Z,100905.16
2018-09-04T17:53:04.663Z,100910.54
2018-09-04T17:55:34.840Z,100906.38
2018-09-04T17:58:04.326Z,100915.41
2018-09-04T18:00:34.008Z,100914.42
2018-09-04T18:03:03.507Z,100916.09
2018-09-04T18:05:33.563Z,100914.62
2018-09-04T18:08:03.330Z,100914.22
2018-09-04T18:10:32.814Z,100919.20
2018-09-04T18:13:02.393Z,100917.14
2018-09-04T18:15:32.062Z,100919.02
2018-09-04T18:18:01.566Z,100922.87
2018-09-04T18:20:31.264Z,100917.55
2018-09-04T18:23:00.969Z,100922.01
2018-09-04T18:25:30.811Z,100921.28
2018-09-04T18:28:00.780Z,100928.16
2018-09-04T18:30:30.003Z,100921.37
2018-09-04T18:32:59.439Z,100920.45
2018-09-04T18:35:28.702Z,100922.70
2018-09-04T18:37:58.243Z,100923.94
2018-09-04T18:40:27.712Z,100922.39
2018-09-04T18:42:58.155Z,100931.19
2018-09-04T18:45:59.278Z,100934.39
2018-09-04T18:48:28.564Z,100938.32
2018-09-04T18:50:58.172Z,100941.63
2018-09-04T18:53:27.402Z,100946.06
2018-09-04T18:55:56.909Z,100951.45
2018-09-04T18:58:26.407Z,100956.18
2018-09-04T19:00:55.931Z,100958.14
2018-09-04T19:03:25.389Z,100957.97
2018-09-04T19:05:55.175Z,100963.48
2018-09-04T19:08:24.414Z,100963.90
2018-09-04T19:10:53.938Z,100969.30
2018-09-04T19:13:23.442Z,100970.73
2018-09-04T19:15:52.936Z,100971.00
2018-09-04T19:18:56.020Z,100965.87
2018-09-04T19:21:26.051Z,100971.77
2018-09-04T19:23:55.861Z,100975.36
2018-09-04T19:26:25.518Z,100975.91
2018-09-04T19:28:54.859Z,100976.22
2018-09-04T19:31:24.663Z,100970.69
2018-09-04T19:33:53.894Z,100975.02
2018-09-04T19:36:23.150Z,100979.61
2018-09-04T19:38:52.871Z,100975.06
2018-09-04T19:41:22.128Z,100981.74
2018-09-04T19:43:51.479Z,100982.69
2018-09-04T19:46:21.308Z,100979.02
2018-09-04T19:48:51.177Z,100976.25
2018-09-04T19:51:20.482Z,100972.98
2018-09-04T19:53:49.696Z,100978.04
2018-09-04T19:56:19.755Z,100978.88
2018-09-04T19:58:50.040Z,100983.41
2018-09-04T20:01:20.514Z,100982.81
2018-09-04T20:03:49.986Z,100987.03
2018-09-04T20:06:19.515Z,100989.70
2018-09-04T20:08:49.012Z,100987.73
2018-09-04T20:11:18.524Z,100987.15
2018-09-04T20:13:48.014Z,100992.52
2018-09-04T20:16:17.508Z,100996.06
2018-09-04T20:18:47.462Z,100997.91
2018-09-04T20:21:17.570Z,100999.59
2018-09-04T20:23:47.512Z,101004.59
2018-09-04T20:26:16.944Z,100996.92
2018-09-04T20:28:47.105Z,101000.88
2018-09-04T20:31:17.021Z,101001.34
2018-09-04T20:33:46.680Z,101004.36
2018-09-04T20:36:16.184Z,101011.59
2018-09-04T20:38:45.770Z,101005.94
2018-09-04T20:41:15.255Z,101010.53
2018-09-04T20:43:44.727Z,101005.73
2018-09-04T20:46:14.382Z,101004.92
2018-09-04T20:48:43.786Z,101008.11
2018-09-04T20:51:13.250Z,101007.34
2018-09-04T20:53:42.966Z,101002.27
2018-09-04T20:56:12.467Z,101012.44
2018-09-04T20:58:52.891Z,101009.94
2018-09-04T21:01:33.420Z,101006.76
2018-09-04T21:04:13.954Z,101008.23
2018-09-04T21:06:50.781Z,101010.98
2018-09-04T21:09:56.130Z,101014.20
2018-09-04T21:12:25.461Z,101012.99
2018-09-04T21:14:54.950Z,101011.52
2018-09-04T21:17:24.719Z,101008.73
2018-09-04T21:19:54.821Z,101013.03
2018-09-04T21:22:24.312Z,101008.36
2018-09-04T21:24:53.799Z,101009.89
2018-09-04T21:27:23.321Z,101013.98
2018-09-04T21:29:52.794Z,101013.34
2018-09-04T21:32:22.243Z,101012.73
2018-09-04T21:34:51.657Z,101014.04
2018-09-04T21:37:21.335Z,101009.69
2018-09-04T21:39:50.968Z,101005.70
2018-09-04T21:42:21.635Z,101014.61
2018-09-04T21:44:51.271Z,101012.99
2018-09-04T21:47:21.233Z,101015.42
2018-09-04T21:49:51.049Z,101011.58
2018-09-04T21:52:20.831Z,101012.22
2018-09-04T21:54:50.334Z,101012.86
2018-09-04T21:57:20.203Z,101007.41
2018-09-04T21:59:49.759Z,101008.14
2018-09-04T22:02:19.042Z,101007.45
2018-09-04T22:04:49.564Z,101003.88
2018-09-04T22:07:19.065Z,100998.03
2018-09-04T22:09:48.599Z,101001.94
2018-09-04T22:12:17.850Z,101011.28
2018-09-04T22:14:47.235Z,101002.34
2018-09-04T22:17:16.710Z,101000.55
2018-09-04T22:19:46.733Z,101008.41
2018-09-04T22:22:15.934Z,101006.53
2018-09-04T22:24:45.448Z,101007.59
2018-09-04T22:27:15.711Z,101004.10
2018-09-04T22:29:45.393Z,101008.41
2018-09-04T22:32:14.754Z,101004.48
2018-09-04T22:34:44.694Z,101004.98
2018-09-04T22:37:14.208Z,100998.11
2018-09-04T22:39:43.815Z,101005.45
2018-09-04T22:42:13.184Z,101002.89
2018-09-04T22:44:43.266Z,101008.27
2018-09-04T22:47:12.804Z,101009.30
2018-09-04T22:49:46.459Z,101013.13
2018-09-04T22:52:15.910Z,101006.44
2018-09-04T22:54:45.403Z,100999.71
2018-09-04T22:57:14.924Z,101001.45
2018-09-04T22:59:44.435Z,100996.59
2018-09-04T23:02:13.929Z,100997.88
2018-09-04T23:04:43.439Z,100998.94
2018-09-04T23:07:13.433Z,100998.37
2018-09-04T23:09:42.676Z,101005.44
2018-09-04T23:12:12.936Z,100996.17
2018-09-04T23:14:42.917Z,100999.00
2018-09-04T23:17:12.462Z,100996.81
2018-09-04T23:19:41.890Z,100995.68
2018-09-04T23:22:11.327Z,100997.34
2018-09-04T23:24:40.663Z,100998.33
2018-09-04T23:27:10.399Z,100993.37
2018-09-04T23:29:39.897Z,100999.11
2018-09-04T23:32:09.783Z,100992.21
2018-09-04T23:34:39.955Z,100994.00
2018-09-04T23:37:09.337Z,100994.83
2018-09-04T23:39:38.729Z,100990.94
2018-09-04T23:42:08.308Z,100991.05
2018-09-04T23:44:37.545Z,100986.34
2018-09-04T23:47:07.111Z,100990.08
2018-09-04T23:49:36.557Z,100990.92
2018-09-04T23:52:06.329Z,100991.70
2018-09-04T23:54:35.850Z,100985.59
2018-09-04T23:57:05.691Z,100991.47
2018-09-04T23:59:35.000Z,100987.78
